EJA20 KACY-KIAD
Flight info
| Callsign | EJA20 |
|---|---|
| Flight time | N/A |
| Altitude | 20000 |
| Route | DCT LEEAH T358 OBWON T356 MRB/N0341F150 |
| Aircraft | C25B/L-SDE2E3FGHRWXYZ/S |
Departure
| Time | 2026-04-30 20:05 |
|---|---|
| Airport | Atlantic City International Airport (KACY) |
Arrival
| Time | N/A |
|---|---|
| Airport | Washington Dulles International Airport (KIAD) |
| Time | Latitude | Longitude | Altitude | Speed | Heading |
|---|---|---|---|---|---|
| 2026-04-30 19:47 | 39.44993 | -74.57451 | 69 ft | 0 kts | 75° |
| 2026-04-30 20:00 | 39.45069 | -74.57469 | 67 ft | 20 kts | 301° |
| 2026-04-30 20:00 | 39.45142 | -74.57619 | 69 ft | 20 kts | 266° |
| 2026-04-30 20:01 | 39.45088 | -74.58000 | 68 ft | 22 kts | 297° |
| 2026-04-30 20:01 | 39.45187 | -74.58128 | 60 ft | 19 kts | 306° |
| 2026-04-30 20:01 | 39.45108 | -74.58225 | 67 ft | 19 kts | 207° |
| 2026-04-30 20:02 | 39.44932 | -74.58346 | 64 ft | 0 kts | 230° |
| 2026-04-30 20:03 | 39.44928 | -74.58365 | 63 ft | 7 kts | 279° |
| 2026-04-30 20:03 | 39.44953 | -74.58432 | 65 ft | 9 kts | 299° |
| 2026-04-30 20:04 | 39.45051 | -74.58463 | 66 ft | 27 kts | 30° |
| 2026-04-30 20:04 | 39.45556 | -74.58117 | 67 ft | 143 kts | 28° |
| 2026-04-30 20:04 | 39.46647 | -74.57368 | 608 ft | 199 kts | 26° |
| 2026-04-30 20:05 | 39.49580 | -74.56412 | 2815 ft | 258 kts | 341° |
| 2026-04-30 20:05 | 39.51011 | -74.57921 | 3978 ft | 287 kts | 300° |
| 2026-04-30 20:05 | 39.52735 | -74.63234 | 4112 ft | 330 kts | 287° |
| 2026-04-30 20:06 | 39.52861 | -74.66194 | 4131 ft | 334 kts | 260° |
| 2026-04-30 20:06 | 39.51837 | -74.68966 | 4803 ft | 359 kts | 235° |
| 2026-04-30 20:06 | 39.50005 | -74.71301 | 5606 ft | 377 kts | 221° |
| 2026-04-30 20:06 | 39.47977 | -74.73384 | 6621 ft | 373 kts | 219° |
| 2026-04-30 20:07 | 39.45879 | -74.75352 | 7620 ft | 369 kts | 218° |
| 2026-04-30 20:07 | 39.43865 | -74.77362 | 8647 ft | 364 kts | 221° |
| 2026-04-30 20:07 | 39.39940 | -74.81389 | 10671 ft | 355 kts | 220° |
| 2026-04-30 20:08 | 39.37998 | -74.83332 | 11653 ft | 351 kts | 221° |
| 2026-04-30 20:08 | 39.36100 | -74.85242 | 12669 ft | 347 kts | 221° |
| 2026-04-30 20:08 | 39.34207 | -74.87142 | 13705 ft | 342 kts | 222° |
| 2026-04-30 20:08 | 39.32337 | -74.89023 | 14656 ft | 338 kts | 222° |
| 2026-04-30 20:09 | 39.30486 | -74.90875 | 15629 ft | 334 kts | 222° |
| 2026-04-30 20:09 | 39.28654 | -74.92710 | 16643 ft | 331 kts | 222° |
| 2026-04-30 20:09 | 39.25056 | -74.96296 | 18647 ft | 326 kts | 223° |
| 2026-04-30 20:10 | 39.21448 | -74.99882 | 19986 ft | 340 kts | 223° |
| 2026-04-30 20:10 | 39.19516 | -75.01822 | 19986 ft | 362 kts | 222° |
| 2026-04-30 20:10 | 39.17490 | -75.03874 | 19995 ft | 377 kts | 223° |
| 2026-04-30 20:11 | 39.13253 | -75.08190 | 20012 ft | 396 kts | 222° |
| 2026-04-30 20:11 | 39.11100 | -75.10393 | 20014 ft | 401 kts | 222° |
| 2026-04-30 20:11 | 39.08903 | -75.12637 | 20009 ft | 405 kts | 222° |
| 2026-04-30 20:12 | 39.04461 | -75.17183 | 20007 ft | 409 kts | 222° |
| 2026-04-30 20:12 | 39.02225 | -75.19468 | 20005 ft | 410 kts | 222° |
| 2026-04-30 20:12 | 39.00017 | -75.21730 | 19989 ft | 411 kts | 222° |